createdAt,value
2022-09-15T00:01:25.903Z,31.23
2022-09-15T00:03:54.292Z,31.48
2022-09-15T00:06:23.831Z,32.13
2022-09-15T00:08:52.204Z,34.33
2022-09-15T00:11:22.991Z,32.72
2022-09-15T00:13:52.668Z,44.80
2022-09-15T00:16:23.127Z,37.13
2022-09-15T00:18:51.260Z,40.20
2022-09-15T00:21:22.052Z,40.22
2022-09-15T00:23:51.990Z,38.92
2022-09-15T00:26:22.375Z,40.38
2022-09-15T00:28:51.367Z,37.80
2022-09-15T00:31:23.690Z,39.25
2022-09-15T00:33:53.386Z,35.80
2022-09-15T00:36:22.455Z,34.88
2022-09-15T00:38:53.009Z,35.75
2022-09-15T00:41:22.526Z,34.00
2022-09-15T00:43:53.993Z,31.30
2022-09-15T00:46:28.500Z,33.90
2022-09-15T00:49:03.299Z,29.17
2022-09-15T00:51:38.016Z,24.83
2022-09-15T00:54:22.664Z,22.88
2022-09-15T00:56:54.317Z,25.45
2022-09-15T00:59:26.844Z,22.13
2022-09-15T01:02:02.319Z,21.83
2022-09-15T01:04:30.997Z,20.42
2022-09-15T01:07:04.855Z,22.10
2022-09-15T01:09:38.706Z,20.55
2022-09-15T01:12:07.181Z,19.80
2022-09-15T01:14:35.764Z,21.98
2022-09-15T01:17:08.164Z,20.08
2022-09-15T01:20:24.562Z,21.75
2022-09-15T01:23:08.528Z,21.90
2022-09-15T01:28:56.004Z,23.60
2022-09-15T01:31:30.614Z,21.70
2022-09-15T01:34:03.129Z,29.38
2022-09-15T01:36:38.951Z,34.03
2022-09-15T01:39:15.258Z,39.38
2022-09-15T01:41:47.793Z,36.47
2022-09-15T01:44:20.705Z,38.47
2022-09-15T01:46:57.178Z,33.83
2022-09-15T01:49:28.791Z,35.58
2022-09-15T01:51:57.581Z,37.80
2022-09-15T01:54:33.126Z,39.95
2022-09-15T01:57:02.689Z,38.65
2022-09-15T01:59:31.043Z,44.80
2022-09-15T02:02:05.381Z,43.55
2022-09-15T02:04:36.754Z,45.78
2022-09-15T02:07:11.816Z,45.13
2022-09-15T02:09:49.616Z,48.30
2022-09-15T02:12:22.063Z,43.47
2022-09-15T02:14:58.197Z,44.25
2022-09-15T02:17:31.378Z,48.10
2022-09-15T02:20:10.057Z,44.10
2022-09-15T02:22:41.024Z,49.40
2022-09-15T02:25:12.682Z,46.50
2022-09-15T02:27:45.469Z,42.53
2022-09-15T02:30:17.831Z,43.67
2022-09-15T02:32:54.266Z,42.72
2022-09-15T02:35:23.361Z,42.40
2022-09-15T02:37:53.286Z,40.35
2022-09-15T02:40:22.212Z,40.65
2022-09-15T02:42:55.903Z,43.40
2022-09-15T02:45:27.094Z,41.88
2022-09-15T02:47:57.100Z,44.55
2022-09-15T02:50:26.766Z,49.00
2022-09-15T02:52:55.202Z,44.88
2022-09-15T02:55:24.985Z,40.40
2022-09-15T02:57:53.093Z,44.80
2022-09-15T03:00:21.460Z,42.25
2022-09-15T03:02:51.675Z,43.60
2022-09-15T03:05:23.833Z,48.65
2022-09-15T03:07:53.093Z,44.72
2022-09-15T03:10:21.832Z,46.00
2022-09-15T03:12:52.190Z,47.72
2022-09-15T03:15:23.115Z,47.38
2022-09-15T03:17:51.845Z,43.92
2022-09-15T03:20:22.856Z,39.75
2022-09-15T03:22:51.522Z,42.75
2022-09-15T03:25:20.131Z,40.88
2022-09-15T03:27:48.715Z,39.85
2022-09-15T03:30:17.516Z,39.35
2022-09-15T03:32:45.861Z,41.58
2022-09-15T03:35:14.019Z,35.63
2022-09-15T03:37:43.528Z,35.50
2022-09-15T03:40:12.160Z,33.95
2022-09-15T03:42:41.027Z,34.70
2022-09-15T03:45:09.698Z,37.50
2022-09-15T03:47:38.151Z,34.20
2022-09-15T03:50:07.688Z,33.55
2022-09-15T03:52:35.879Z,30.73
2022-09-15T03:55:06.230Z,35.50
2022-09-15T03:57:34.510Z,32.03
2022-09-15T04:00:02.857Z,35.63
2022-09-15T04:02:31.087Z,39.22
2022-09-15T04:04:59.691Z,42.20
2022-09-15T04:07:27.905Z,34.35
2022-09-15T04:09:56.659Z,37.15
2022-09-15T04:12:26.271Z,35.35
2022-09-15T04:14:54.616Z,32.67
2022-09-15T04:17:22.749Z,42.42
2022-09-15T04:19:51.001Z,42.03
2022-09-15T04:22:19.172Z,36.88
2022-09-15T04:24:48.104Z,38.53
2022-09-15T04:27:16.853Z,36.80
2022-09-15T04:29:46.577Z,43.80
2022-09-15T04:32:14.710Z,43.25
2022-09-15T04:34:43.070Z,43.35
2022-09-15T04:37:11.405Z,47.20
2022-09-15T04:39:39.722Z,39.78
2022-09-15T04:42:08.218Z,42.70
2022-09-15T04:44:36.329Z,40.22
2022-09-15T04:47:06.285Z,38.72
2022-09-15T04:49:34.832Z,45.65
2022-09-15T04:52:05.644Z,38.30
2022-09-15T04:54:37.334Z,41.92
2022-09-15T04:57:05.931Z,41.47
2022-09-15T04:59:34.191Z,43.13
2022-09-15T05:02:02.564Z,40.53
2022-09-15T05:04:32.093Z,40.15
2022-09-15T05:07:00.341Z,41.92
2022-09-15T05:09:29.840Z,43.58
2022-09-15T05:11:58.099Z,37.70
2022-09-15T05:14:26.683Z,38.88
2022-09-15T05:16:55.234Z,36.53
2022-09-15T05:19:23.509Z,36.72
2022-09-15T05:21:53.133Z,40.00
2022-09-15T05:24:21.891Z,37.45
2022-09-15T05:26:49.951Z,44.00
2022-09-15T05:29:18.112Z,43.75
2022-09-15T05:31:46.689Z,43.10
2022-09-15T05:34:15.370Z,41.50
2022-09-15T05:36:43.528Z,39.75
2022-09-15T05:39:13.419Z,38.50
2022-09-15T05:41:41.881Z,39.00
2022-09-15T05:44:12.276Z,35.55
2022-09-15T05:46:40.881Z,43.22
2022-09-15T05:49:09.161Z,38.75
2022-09-15T05:51:37.850Z,44.08
2022-09-15T05:54:06.393Z,46.63
2022-09-15T05:56:36.336Z,37.85
2022-09-15T05:59:04.612Z,47.38
2022-09-15T06:01:32.860Z,48.80
2022-09-15T06:04:01.335Z,44.63
2022-09-15T06:06:29.573Z,36.63
2022-09-15T06:09:00.658Z,33.90
2022-09-15T06:11:31.266Z,36.33
2022-09-15T06:14:03.380Z,35.50
2022-09-15T06:16:33.786Z,32.70
2022-09-15T06:19:02.459Z,33.20
2022-09-15T06:21:32.261Z,36.55
2022-09-15T06:24:03.365Z,38.90
2022-09-15T06:26:32.042Z,36.05
2022-09-15T06:29:03.646Z,37.75
2022-09-15T06:31:33.985Z,39.83
2022-09-15T06:34:03.837Z,37.45
2022-09-15T06:36:32.910Z,44.35
2022-09-15T06:39:01.203Z,33.20
2022-09-15T06:41:42.604Z,37.83
2022-09-15T06:44:20.362Z,39.92
2022-09-15T06:46:48.735Z,35.08
2022-09-15T06:49:16.925Z,33.40
2022-09-15T06:51:45.580Z,36.55
2022-09-15T06:54:14.657Z,37.45
2022-09-15T06:56:42.781Z,39.58
2022-09-15T06:59:12.837Z,33.28
2022-09-15T07:01:43.143Z,34.72
2022-09-15T07:04:14.540Z,34.90
2022-09-15T07:06:42.829Z,33.13
2022-09-15T07:09:12.466Z,35.55
2022-09-15T07:11:42.532Z,30.88
2022-09-15T07:14:11.889Z,31.60
2022-09-15T07:16:41.363Z,32.20
2022-09-15T07:19:09.626Z,33.65
2022-09-15T07:21:37.792Z,34.08
2022-09-15T07:24:07.810Z,30.08
2022-09-15T07:26:36.288Z,28.45
2022-09-15T07:29:07.173Z,25.48
2022-09-15T07:31:37.614Z,27.10
2022-09-15T07:34:11.069Z,28.42
2022-09-15T07:36:39.277Z,30.52
2022-09-15T07:39:07.694Z,29.33
2022-09-15T07:41:36.260Z,27.13
2022-09-15T07:44:04.653Z,29.48
2022-09-15T07:46:34.326Z,28.98
2022-09-15T07:49:03.580Z,29.23
2022-09-15T07:51:33.245Z,26.25
2022-09-15T07:54:01.801Z,27.00
2022-09-15T07:56:32.268Z,24.85
2022-09-15T07:59:00.484Z,21.05
2022-09-15T08:01:28.690Z,23.25
2022-09-15T08:03:57.479Z,24.60
2022-09-15T08:06:27.918Z,23.83
2022-09-15T08:09:00.766Z,25.60
2022-09-15T08:11:30.626Z,26.95
2022-09-15T08:14:03.378Z,23.02
2022-09-15T08:16:31.844Z,23.13
2022-09-15T08:19:00.022Z,25.20
2022-09-15T08:21:29.206Z,20.08
2022-09-15T08:24:01.640Z,23.92
2022-09-15T08:26:31.130Z,20.35
2022-09-15T08:28:59.801Z,20.00
2022-09-15T08:31:28.212Z,18.02
2022-09-15T08:33:57.205Z,18.75
2022-09-15T08:36:27.859Z,15.82
2022-09-15T08:38:56.727Z,19.10
2022-09-15T08:41:30.667Z,17.55
2022-09-15T08:44:03.913Z,18.48
2022-09-15T08:46:37.612Z,17.67
2022-09-15T08:49:12.257Z,16.20
2022-09-15T08:51:46.236Z,19.73
2022-09-15T08:54:21.475Z,22.15
2022-09-15T08:56:52.448Z,19.45
2022-09-15T08:59:21.815Z,17.50
2022-09-15T09:02:06.950Z,16.45
2022-09-15T09:05:00.540Z,16.63
2022-09-15T09:07:50.002Z,17.45
2022-09-15T09:10:26.686Z,15.13
2022-09-15T09:13:10.779Z,12.50
2022-09-15T09:15:51.039Z,12.20
2022-09-15T09:18:40.176Z,13.35
2022-09-15T09:21:17.505Z,11.00
2022-09-15T09:23:51.250Z,12.98
2022-09-15T09:26:19.916Z,9.60
2022-09-15T09:28:57.044Z,10.98
2022-09-15T09:31:26.667Z,11.50
2022-09-15T09:34:03.189Z,10.38
2022-09-15T09:36:31.537Z,9.88
2022-09-15T09:38:59.968Z,8.75
2022-09-15T09:41:35.902Z,9.27
2022-09-15T09:44:08.792Z,9.27
2022-09-15T09:46:37.039Z,7.90
2022-09-15T09:49:13.399Z,8.95
2022-09-15T09:51:51.900Z,8.13
2022-09-15T09:54:21.407Z,5.30
2022-09-15T09:56:50.884Z,4.03
2022-09-15T09:59:41.623Z,4.43
2022-09-15T10:02:21.455Z,3.80
2022-09-15T10:04:51.275Z,4.55
2022-09-15T10:07:21.650Z,4.65
2022-09-15T10:09:58.378Z,3.47
2022-09-15T10:12:32.204Z,4.22
2022-09-15T10:15:05.093Z,4.88
2022-09-15T10:17:43.171Z,5.40
2022-09-15T10:20:28.523Z,5.60
2022-09-15T10:23:04.944Z,5.28
2022-09-15T10:25:57.668Z,5.88
2022-09-15T10:28:26.554Z,5.00
2022-09-15T10:31:05.543Z,3.33
2022-09-15T10:33:35.370Z,4.72
2022-09-15T10:36:09.083Z,5.57
2022-09-15T10:38:46.698Z,7.35
2022-09-15T10:41:27.400Z,6.60
2022-09-15T10:44:15.275Z,7.35
2022-09-15T10:46:55.769Z,4.28
2022-09-15T10:49:41.174Z,4.28
2022-09-15T10:52:17.703Z,8.18
2022-09-15T10:55:08.431Z,5.30
2022-09-15T10:57:53.660Z,5.45
2022-09-15T11:00:24.182Z,7.10
2022-09-15T11:03:25.375Z,6.50
2022-09-15T11:06:05.594Z,7.22
2022-09-15T11:09:05.715Z,4.80
2022-09-15T11:11:42.923Z,6.93
2022-09-15T11:14:25.479Z,4.68
2022-09-15T11:17:08.266Z,8.35
2022-09-15T11:19:56.718Z,6.43
2022-09-15T11:22:30.542Z,7.72
2022-09-15T11:25:02.072Z,5.13
2022-09-15T11:27:37.371Z,4.75
2022-09-15T11:30:08.848Z,4.03
2022-09-15T11:32:44.996Z,8.05
2022-09-15T11:35:37.272Z,6.72
2022-09-15T11:38:26.801Z,5.88
2022-09-15T11:41:00.189Z,8.10
2022-09-15T11:43:35.544Z,7.90
2022-09-15T11:46:11.162Z,7.55
2022-09-15T11:48:46.405Z,5.03
2022-09-15T11:51:18.518Z,5.65
2022-09-15T11:53:55.535Z,6.53
2022-09-15T11:56:29.314Z,4.70
2022-09-15T11:59:10.825Z,5.50
2022-09-15T12:01:48.485Z,6.85
2022-09-15T12:04:21.672Z,6.45
2022-09-15T12:06:55.548Z,6.07
2022-09-15T12:09:25.239Z,5.10
2022-09-15T12:11:57.794Z,6.65
2022-09-15T12:14:31.703Z,6.93
2022-09-15T12:17:00.682Z,6.05
2022-09-15T12:19:45.130Z,5.97
2022-09-15T12:22:18.897Z,4.63
2022-09-15T12:24:56.884Z,4.25
2022-09-15T12:27:27.664Z,4.93
2022-09-15T12:29:57.349Z,4.07
2022-09-15T12:32:27.699Z,5.40
2022-09-15T12:35:13.327Z,5.35
2022-09-15T12:37:45.185Z,6.50
2022-09-15T12:40:38.974Z,7.22
2022-09-15T12:43:20.377Z,5.10
2022-09-15T12:45:57.427Z,4.78
2022-09-15T12:48:29.227Z,4.50
2022-09-15T12:51:00.859Z,7.88
2022-09-15T12:53:31.991Z,5.10
2022-09-15T12:56:05.639Z,6.50
2022-09-15T12:58:37.824Z,6.25
2022-09-15T13:01:49.539Z,4.40
2022-09-15T13:04:59.340Z,5.32
2022-09-15T13:07:55.135Z,5.63
2022-09-15T13:10:36.806Z,4.22
2022-09-15T13:13:20.493Z,6.30
2022-09-15T13:18:20.128Z,4.95
2022-09-15T13:20:55.164Z,7.50
2022-09-15T13:23:27.278Z,4.72
2022-09-15T13:25:58.798Z,6.65
2022-09-15T13:28:29.149Z,4.20
2022-09-15T13:31:24.816Z,5.15
2022-09-15T13:40:50.566Z,3.97
2022-09-15T13:43:48.789Z,6.32
2022-09-15T13:46:29.157Z,6.55
2022-09-15T13:49:26.237Z,6.07
2022-09-15T13:51:59.775Z,7.05
2022-09-15T13:54:28.400Z,4.75
2022-09-15T13:57:01.142Z,3.25
2022-09-15T13:59:32.453Z,5.35
2022-09-15T14:02:02.360Z,4.07
2022-09-15T14:04:32.932Z,4.32
2022-09-15T14:07:02.924Z,6.22
2022-09-15T14:09:34.336Z,5.82
2022-09-15T14:12:09.211Z,4.78
2022-09-15T14:14:42.136Z,3.78
2022-09-15T14:17:22.757Z,4.57
2022-09-15T14:19:52.767Z,4.03
2022-09-15T14:22:27.434Z,4.47
2022-09-15T14:24:57.117Z,3.88
2022-09-15T14:27:27.317Z,9.10
2022-09-15T14:29:58.119Z,7.35
2022-09-15T14:32:29.305Z,6.35
2022-09-15T14:35:00.896Z,7.88
2022-09-15T14:37:32.158Z,7.03
2022-09-15T14:40:01.950Z,5.38
2022-09-15T14:42:32.711Z,6.75
2022-09-15T14:48:07.586Z,5.45
2022-09-15T14:50:36.337Z,5.20
2022-09-15T14:53:07.283Z,7.22
2022-09-15T14:55:39.690Z,5.90
2022-09-15T14:58:13.852Z,6.25
2022-09-15T15:00:48.499Z,5.35
2022-09-15T15:03:29.938Z,6.22
2022-09-15T15:06:12.716Z,5.32
2022-09-15T15:08:56.484Z,6.82
2022-09-15T15:11:24.895Z,4.80
2022-09-15T15:13:54.960Z,5.32
2022-09-15T15:16:27.973Z,5.13
2022-09-15T15:18:58.136Z,7.00
2022-09-15T15:21:36.803Z,4.25
2022-09-15T15:24:18.690Z,6.75
2022-09-15T15:26:48.008Z,6.13
2022-09-15T15:29:43.123Z,4.10
2022-09-15T15:32:16.548Z,8.05
2022-09-15T15:34:55.746Z,6.65
2022-09-15T15:37:29.307Z,5.93
2022-09-15T15:42:28.485Z,5.38
2022-09-15T15:45:01.394Z,7.07
2022-09-15T15:47:31.874Z,8.10
2022-09-15T15:50:13.907Z,6.38
2022-09-15T15:52:43.772Z,8.73
2022-09-15T15:55:15.271Z,4.40
2022-09-15T15:57:44.708Z,5.15
2022-09-15T16:00:21.490Z,6.82
2022-09-15T16:02:50.355Z,8.18
2022-09-15T16:05:22.233Z,4.45
2022-09-15T16:07:52.263Z,5.00
2022-09-15T16:10:23.913Z,7.00
2022-09-15T16:12:52.067Z,6.38
2022-09-15T16:15:22.545Z,7.15
2022-09-15T16:17:50.923Z,6.07
2022-09-15T16:20:20.783Z,7.00
2022-09-15T16:22:49.206Z,5.82
2022-09-15T16:25:19.793Z,7.40
2022-09-15T16:27:48.230Z,6.60
2022-09-15T16:30:16.549Z,6.38
2022-09-15T16:32:44.941Z,5.30
2022-09-15T16:35:23.920Z,6.80
2022-09-15T16:37:52.267Z,6.97
2022-09-15T16:40:20.668Z,4.50
2022-09-15T16:42:49.544Z,7.25
2022-09-15T16:45:25.006Z,9.45
2022-09-15T16:47:53.300Z,4.75
2022-09-15T16:50:23.432Z,6.05
2022-09-15T16:52:51.684Z,4.65
2022-09-15T16:55:34.469Z,6.70
2022-09-15T16:58:02.724Z,3.95
2022-09-15T17:00:32.147Z,5.68
2022-09-15T17:03:00.651Z,6.00
2022-09-15T17:05:33.561Z,6.50
2022-09-15T17:08:02.123Z,5.35
2022-09-15T17:10:30.279Z,5.60
2022-09-15T17:12:58.655Z,4.88
2022-09-15T17:15:29.071Z,6.78
2022-09-15T17:17:58.070Z,6.05
2022-09-15T17:20:26.624Z,7.75
2022-09-15T17:22:57.423Z,5.85
2022-09-15T17:25:29.614Z,5.50
2022-09-15T17:28:02.576Z,4.35
2022-09-15T17:30:32.485Z,7.03
2022-09-15T17:33:06.381Z,5.82
2022-09-15T17:35:36.755Z,8.93
2022-09-15T17:38:07.736Z,4.43
2022-09-15T17:40:37.106Z,7.10
2022-09-15T17:43:05.568Z,6.45
2022-09-15T17:45:35.292Z,5.82
2022-09-15T17:48:04.965Z,6.10
2022-09-15T17:50:34.902Z,6.20
2022-09-15T17:53:03.247Z,7.95
2022-09-15T17:55:34.683Z,5.25
2022-09-15T17:58:04.657Z,5.65
2022-09-15T18:00:35.821Z,5.88
2022-09-15T18:03:06.435Z,5.63
2022-09-15T18:05:36.865Z,6.05
2022-09-15T18:08:06.978Z,7.95
2022-09-15T18:10:37.408Z,4.65
2022-09-15T18:13:07.358Z,6.43
2022-09-15T18:15:36.802Z,5.40
2022-09-15T18:18:08.814Z,6.80
2022-09-15T18:20:37.447Z,6.20
2022-09-15T18:23:05.748Z,7.15
2022-09-15T18:25:37.107Z,6.18
2022-09-15T18:28:07.603Z,5.80
2022-09-15T18:30:40.761Z,4.40
2022-09-15T18:33:14.013Z,6.95
2022-09-15T18:35:43.563Z,4.75
2022-09-15T18:38:12.297Z,5.55
2022-09-15T18:40:45.845Z,5.47
2022-09-15T18:43:14.060Z,5.57
2022-09-15T18:45:43.164Z,3.67
2022-09-15T18:48:13.126Z,5.38
2022-09-15T18:50:41.855Z,3.97
2022-09-15T18:53:10.602Z,4.63
2022-09-15T18:55:44.792Z,4.68
2022-09-15T18:58:13.597Z,3.83
2022-09-15T19:00:41.937Z,4.47
2022-09-15T19:03:10.802Z,4.68
2022-09-15T19:05:39.505Z,4.10
2022-09-15T19:08:09.411Z,5.90
2022-09-15T19:10:40.904Z,6.60
2022-09-15T19:13:11.478Z,8.48
2022-09-15T19:15:40.757Z,7.78
2022-09-15T19:18:09.101Z,6.35
2022-09-15T19:20:37.418Z,8.82
2022-09-15T19:23:05.570Z,6.93
2022-09-15T19:25:34.111Z,5.85
2022-09-15T19:28:02.828Z,7.68
2022-09-15T19:30:32.405Z,6.65
2022-09-15T19:33:00.857Z,8.07
2022-09-15T19:35:29.411Z,6.38
2022-09-15T19:37:57.649Z,6.47
2022-09-15T19:40:25.997Z,7.32
2022-09-15T19:42:54.411Z,3.95
2022-09-15T19:45:22.576Z,7.15
2022-09-15T19:47:52.406Z,6.72
2022-09-15T19:50:20.673Z,5.22
2022-09-15T19:52:49.109Z,6.57
2022-09-15T19:55:18.467Z,4.15
2022-09-15T19:57:47.259Z,5.35
2022-09-15T20:00:16.221Z,5.70
2022-09-15T20:02:48.002Z,6.75
2022-09-15T20:05:17.836Z,6.00
2022-09-15T20:07:48.247Z,5.97
2022-09-15T20:10:16.838Z,6.60
2022-09-15T20:12:45.028Z,6.55
2022-09-15T20:15:13.257Z,5.82
2022-09-15T20:17:42.412Z,4.35
2022-09-15T20:20:12.151Z,5.13
2022-09-15T20:22:42.112Z,6.80
2022-09-15T20:25:10.298Z,4.13
2022-09-15T20:27:38.488Z,6.70
2022-09-15T20:30:08.601Z,7.82
2022-09-15T20:32:36.775Z,7.22
2022-09-15T20:35:05.373Z,6.78
2022-09-15T20:37:37.510Z,6.68
2022-09-15T20:40:08.713Z,5.53
2022-09-15T20:42:37.882Z,4.38
2022-09-15T20:45:06.999Z,5.65
2022-09-15T20:47:35.138Z,4.97
2022-09-15T20:50:03.519Z,5.28
2022-09-15T20:52:37.440Z,6.53
2022-09-15T20:55:08.752Z,4.03
2022-09-15T20:57:36.929Z,6.13
2022-09-15T21:00:08.514Z,5.13
2022-09-15T21:02:36.899Z,5.10
2022-09-15T21:05:05.366Z,7.32
2022-09-15T21:07:34.439Z,5.15
2022-09-15T21:10:03.139Z,4.93
2022-09-15T21:12:33.863Z,4.68
2022-09-15T21:15:03.319Z,7.97
2022-09-15T21:17:31.576Z,4.93
2022-09-15T21:19:59.712Z,4.88
2022-09-15T21:22:28.005Z,3.47
2022-09-15T21:24:56.333Z,4.47
2022-09-15T21:27:27.336Z,4.88
2022-09-15T21:29:56.951Z,9.07
2022-09-15T21:32:25.649Z,7.28
2022-09-15T21:34:56.066Z,5.13
2022-09-15T21:37:27.066Z,4.70
2022-09-15T21:39:55.279Z,5.38
2022-09-15T21:42:23.448Z,4.80
2022-09-15T21:44:52.282Z,5.43
2022-09-15T21:47:22.160Z,4.90
2022-09-15T21:49:51.818Z,5.90
2022-09-15T21:52:20.065Z,4.38
2022-09-15T21:54:48.216Z,6.68
2022-09-15T21:57:16.319Z,5.32
2022-09-15T21:59:45.259Z,6.50
2022-09-15T22:02:13.452Z,4.40
2022-09-15T22:04:43.025Z,4.40
2022-09-15T22:07:11.322Z,6.30
2022-09-15T22:09:39.984Z,5.20
2022-09-15T22:12:08.623Z,6.00
2022-09-15T22:14:37.190Z,9.25
2022-09-15T22:17:05.511Z,7.55
2022-09-15T22:19:33.637Z,5.93
2022-09-15T22:22:03.382Z,5.35
2022-09-15T22:24:31.564Z,7.53
2022-09-15T22:26:59.645Z,6.30
2022-09-15T22:29:28.162Z,6.45
2022-09-15T22:31:56.331Z,4.70
2022-09-15T22:34:24.558Z,8.15
2022-09-15T22:36:52.878Z,8.32
2022-09-15T22:39:30.252Z,3.35
2022-09-15T22:42:07.262Z,6.38
2022-09-15T22:44:35.396Z,5.95
2022-09-15T22:47:06.196Z,5.35
2022-09-15T22:49:34.791Z,7.22
2022-09-15T22:52:03.302Z,7.88
2022-09-15T22:54:32.972Z,6.53
2022-09-15T22:57:01.638Z,10.00
2022-09-15T22:59:29.712Z,5.85
2022-09-15T23:01:57.952Z,7.70
2022-09-15T23:04:26.769Z,6.30
2022-09-15T23:06:54.900Z,6.93
2022-09-15T23:09:23.037Z,7.80
2022-09-15T23:11:52.624Z,7.03
2022-09-15T23:14:20.798Z,6.72
2022-09-15T23:16:48.905Z,10.68
2022-09-15T23:19:17.654Z,5.68
2022-09-15T23:21:45.746Z,8.70
2022-09-15T23:24:15.158Z,5.63
2022-09-15T23:26:43.617Z,9.68
2022-09-15T23:29:13.308Z,8.27
2022-09-15T23:31:41.723Z,6.68
2022-09-15T23:34:10.152Z,4.82
2022-09-15T23:36:38.353Z,5.80
2022-09-15T23:39:06.782Z,6.05
2022-09-15T23:41:36.944Z,7.80
2022-09-15T23:44:05.242Z,6.63
2022-09-15T23:46:35.355Z,10.18
2022-09-15T23:49:03.798Z,6.60
2022-09-15T23:51:32.147Z,6.55
2022-09-15T23:54:01.925Z,6.20
2022-09-15T23:56:30.123Z,10.25
2022-09-15T23:58:58.283Z,7.90
